Time;durP1;ratioP1;P1;durP2;ratioP2;P2;SDS_P1;SDS_P2;PMS_P1;PMS_P2;Temp;Humidity;BMP_temperature;BMP_pressure;BME280_temperature;BME280_humidity;BME280_pressure;Samples;Min_cycle;Max_cycle;Signal;HPM_P1;HPM_P2
2023/04/18 00:01:06;;;;;;;8.87;7.53;;;;;;;7.58;79.47;101960.03;4971047;28;20231;-76
2023/04/18 00:03:33;;;;;;;8.37;6.90;;;;;;;7.53;80.08;101961.94;4976854;28;20219;-77
2023/04/18 00:06:02;;;;;;;10.40;7.33;;;;;;;7.51;80.60;101959.38;4964656;28;20212;-76
2023/04/18 00:08:28;;;;;;;8.10;7.23;;;;;;;7.51;80.68;101962.03;4970133;28;20315;-76
2023/04/18 00:10:55;;;;;;;8.47;7.33;;;;;;;7.50;80.69;101954.09;4976860;28;20664;-77
2023/04/18 00:13:21;;;;;;;8.27;6.87;;;;;;;7.49;81.28;101957.66;4974970;28;20717;-77
2023/04/18 00:15:48;;;;;;;11.27;6.90;;;;;;;7.49;81.65;101957.66;4975821;28;20212;-76
2023/04/18 00:18:16;;;;;;;10.63;7.83;;;;;;;7.47;81.80;101955.06;4971113;28;20682;-76
2023/04/18 00:20:42;;;;;;;9.53;7.20;;;;;;;7.46;81.94;101963.94;4964005;28;20928;-76
2023/04/18 00:23:12;;;;;;;8.63;7.23;;;;;;;7.45;82.01;101963.97;4973988;28;20219;-75
2023/04/18 00:25:39;;;;;;;9.20;7.77;;;;;;;7.42;82.83;101962.28;4972536;28;20235;-75
2023/04/18 00:28:05;;;;;;;8.23;7.33;;;;;;;7.40;82.64;101963.22;4973117;28;20232;-76
2023/04/18 00:30:32;;;;;;;8.30;7.00;;;;;;;7.38;82.84;101965.06;4967298;28;20234;-76
2023/04/18 00:32:58;;;;;;;8.67;7.30;;;;;;;7.37;82.99;101964.19;4965142;28;20259;-77
2023/04/18 00:35:25;;;;;;;10.93;7.90;;;;;;;7.34;83.21;101963.44;4971546;28;20208;-76
2023/04/18 00:37:51;;;;;;;8.33;7.50;;;;;;;7.30;83.43;101970.59;4969307;28;20204;-77
2023/04/18 00:40:19;;;;;;;10.93;7.40;;;;;;;7.27;83.49;101966.25;4969471;28;20628;-77
2023/04/18 00:42:46;;;;;;;8.97;7.50;;;;;;;7.24;84.12;101970.75;4968906;28;20235;-75
2023/04/18 00:45:12;;;;;;;9.47;6.97;;;;;;;7.23;83.63;101969.00;4969255;28;20208;-75
2023/04/18 00:47:39;;;;;;;10.07;7.23;;;;;;;7.21;84.66;101968.19;4972788;28;20215;-77
2023/04/18 00:50:06;;;;;;;10.47;7.23;;;;;;;7.18;84.76;101978.88;4978599;28;20232;-77
2023/04/18 00:52:34;;;;;;;9.63;7.93;;;;;;;7.15;85.21;101971.91;4973673;28;20247;-76
2023/04/18 00:55:02;;;;;;;9.63;7.80;;;;;;;7.12;84.85;101971.13;4975135;28;20286;-76
2023/04/18 00:57:30;;;;;;;10.63;7.87;;;;;;;7.08;85.18;101961.50;4976394;28;20219;-76
2023/04/18 00:59:56;;;;;;;9.87;6.77;;;;;;;7.04;85.53;101962.50;4973212;28;20231;-77
2023/04/18 01:02:25;;;;;;;9.63;7.70;;;;;;;7.00;85.69;101948.47;4975334;28;20236;-77
2023/04/18 01:04:52;;;;;;;9.70;6.90;;;;;;;6.97;85.95;101959.16;4973083;28;20303;-76
2023/04/18 01:07:18;;;;;;;9.40;7.60;;;;;;;6.95;86.39;101955.69;4979342;28;20236;-77
2023/04/18 01:09:45;;;;;;;9.03;7.40;;;;;;;6.93;85.86;101962.81;4970116;28;20236;-77
2023/04/18 01:12:11;;;;;;;9.07;7.70;;;;;;;6.92;86.04;101961.94;4972715;28;20220;-75
2023/04/18 01:14:42;;;;;;;11.73;8.30;;;;;;;6.93;86.98;101954.84;4972991;28;20205;-76
2023/04/18 01:17:09;;;;;;;10.60;7.10;;;;;;;6.92;87.09;101955.75;4978541;28;20219;-76
2023/04/18 01:19:36;;;;;;;10.73;7.47;;;;;;;6.90;87.06;101950.50;4970894;28;20226;-75
2023/04/18 01:22:03;;;;;;;12.90;7.30;;;;;;;6.89;87.42;101945.25;4973928;28;20228;-77
2023/04/18 01:24:31;;;;;;;10.87;7.97;;;;;;;6.86;88.18;101948.84;4977985;28;20209;-78
2023/04/18 01:26:58;;;;;;;10.27;7.40;;;;;;;6.85;88.10;101948.88;4967430;28;20256;-76
2023/04/18 01:29:25;;;;;;;11.87;8.40;;;;;;;6.84;88.48;101945.38;4977633;28;20228;-77
2023/04/18 01:31:52;;;;;;;9.73;7.33;;;;;;;6.82;88.35;101954.25;4970581;28;20260;-77
2023/04/18 01:34:19;;;;;;;8.83;7.33;;;;;;;6.81;88.49;101952.53;4972571;28;20212;-76
2023/04/18 01:36:46;;;;;;;10.23;7.87;;;;;;;6.81;88.63;101950.75;4973334;28;20216;-76
2023/04/18 01:39:13;;;;;;;11.20;7.83;;;;;;;6.81;88.39;101955.16;4975254;28;20204;-77
2023/04/18 01:41:41;;;;;;;12.63;8.27;;;;;;;6.80;89.01;101949.03;4972047;28;20255;-78
2023/04/18 01:44:07;;;;;;;10.47;7.87;;;;;;;6.80;88.43;101953.47;4974447;28;20205;-76
2023/04/18 01:46:34;;;;;;;10.57;8.37;;;;;;;6.78;88.57;101950.84;4973022;28;20267;-76
2023/04/18 01:49:01;;;;;;;9.33;7.87;;;;;;;6.77;88.95;101948.25;4970848;28;20283;-76
2023/04/18 01:51:27;;;;;;;13.73;9.37;;;;;;;6.78;89.61;101947.34;4971734;28;20224;-77
2023/04/18 01:53:54;;;;;;;13.43;8.53;;;;;;;6.76;89.54;101951.81;4981007;28;20208;-77
2023/04/18 01:56:20;;;;;;;12.90;8.83;;;;;;;6.75;89.63;101948.28;4968742;28;20659;-77
2023/04/18 01:58:48;;;;;;;13.30;8.90;;;;;;;6.74;89.75;101946.53;4970036;28;20271;-77
2023/04/18 02:01:15;;;;;;;12.73;9.23;;;;;;;6.73;90.35;101943.94;4973681;28;20224;-76
2023/04/18 02:03:41;;;;;;;12.73;8.20;;;;;;;6.70;90.15;101942.22;4972112;28;20213;-77
2023/04/18 02:06:08;;;;;;;15.30;9.93;;;;;;;6.70;89.99;101938.72;4980075;28;20215;-77
2023/04/18 02:08:35;;;;;;;13.03;8.80;;;;;;;6.69;90.47;101947.56;4972464;28;20319;-78
2023/04/18 02:11:01;;;;;;;12.60;8.50;;;;;;;6.67;90.85;101939.66;4973819;28;20219;-77
2023/04/18 02:13:28;;;;;;;12.10;9.63;;;;;;;6.67;90.59;101944.97;4968234;28;20215;-77
2023/04/18 02:15:56;;;;;;;15.33;9.90;;;;;;;6.66;90.91;101948.50;4972612;28;20204;-75
2023/04/18 02:18:24;;;;;;;11.63;9.43;;;;;;;6.67;91.20;101944.97;4976028;28;20215;-75
2023/04/18 02:20:51;;;;;;;12.67;9.80;;;;;;;6.67;91.02;101949.38;5000695;23;20538;-68
2023/04/18 02:23:17;;;;;;;17.70;10.00;;;;;;;6.66;91.43;101942.34;5003438;28;20258;-69
2023/04/18 02:25:44;;;;;;;14.23;9.83;;;;;;;6.63;91.32;101943.28;5012031;28;20683;-70
2023/04/18 02:28:11;;;;;;;18.37;10.70;;;;;;;6.61;91.74;101953.09;5010757;28;20202;-70
2023/04/18 02:30:37;;;;;;;13.30;9.77;;;;;;;6.57;92.75;101954.06;5008810;28;20227;-70
2023/04/18 02:33:05;;;;;;;13.00;9.23;;;;;;;6.55;93.01;101959.41;5007666;28;20245;-70
2023/04/18 02:35:31;;;;;;;12.60;10.37;;;;;;;6.54;92.73;101946.19;5007160;28;20242;-72
2023/04/18 02:37:58;;;;;;;15.40;10.40;;;;;;;6.52;93.68;101946.22;5001349;28;20225;-69
2023/04/18 02:40:24;;;;;;;12.43;9.47;;;;;;;6.52;93.75;101948.88;5003028;28;20203;-70
2023/04/18 02:42:51;;;;;;;14.33;10.87;;;;;;;6.53;93.17;101947.09;5001985;28;20237;-71
2023/04/18 02:45:17;;;;;;;11.67;9.40;;;;;;;6.53;93.83;101947.09;5008280;28;20637;-70
2023/04/18 02:47:44;;;;;;;13.80;9.90;;;;;;;6.51;93.91;101946.28;5005367;28;20211;-68
2023/04/18 02:50:12;;;;;;;11.90;9.87;;;;;;;6.50;94.44;101948.03;5012240;28;20223;-71
2023/04/18 02:52:38;;;;;;;13.83;9.60;;;;;;;6.49;94.32;101946.31;5006148;28;20219;-71
2023/04/18 02:55:05;;;;;;;13.30;10.07;;;;;;;6.49;94.66;101953.38;5007795;28;20705;-68
2023/04/18 02:57:32;;;;;;;10.83;9.17;;;;;;;6.47;95.24;101960.47;5014558;28;20668;-70
2023/04/18 02:59:58;;;;;;;13.83;10.40;;;;;;;6.47;94.80;101961.34;5002258;28;20203;-70
2023/04/18 03:02:25;;;;;;;14.63;10.40;;;;;;;6.46;95.25;101962.25;5005714;28;20227;-71
2023/04/18 03:04:51;;;;;;;15.27;10.30;;;;;;;6.45;95.16;101962.34;5003908;28;20207;-68
2023/04/18 03:07:19;;;;;;;14.77;10.10;;;;;;;6.44;95.48;101957.94;5003837;28;20211;-69
2023/04/18 03:09:45;;;;;;;14.73;10.07;;;;;;;6.43;95.68;101958.84;5007092;28;20230;-68
2023/04/18 03:12:12;;;;;;;14.67;10.63;;;;;;;6.45;96.20;101959.69;5006867;28;20198;-70
2023/04/18 03:14:38;;;;;;;14.60;10.93;;;;;;;6.43;96.16;101958.84;5007827;28;20664;-68
2023/04/18 03:17:05;;;;;;;16.13;11.20;;;;;;;6.43;96.18;101964.13;5002661;28;20214;-69
2023/04/18 03:19:31;;;;;;;14.17;10.73;;;;;;;6.43;96.30;101962.38;5007197;28;20676;-71
2023/04/18 03:21:58;;;;;;;15.23;11.80;;;;;;;6.43;97.03;101958.84;5006241;28;20231;-70
2023/04/18 03:24:25;;;;;;;17.00;11.93;;;;;;;6.43;96.62;101961.50;5010556;28;20245;-71
2023/04/18 03:26:52;;;;;;;14.70;12.23;;;;;;;6.42;96.61;101965.03;5006016;28;20218;-70
2023/04/18 03:29:18;;;;;;;14.17;11.57;;;;;;;6.42;96.83;101959.75;5006677;28;20230;-70
2023/04/18 03:31:45;;;;;;;14.83;11.90;;;;;;;6.43;96.84;101966.78;5003024;28;20214;-70
2023/04/18 03:34:11;;;;;;;16.80;10.90;;;;;;;6.41;97.34;101966.81;5010694;28;20235;-70
2023/04/18 03:36:38;;;;;;;20.33;14.23;;;;;;;6.41;97.32;101965.94;5009643;28;20202;-70
2023/04/18 03:39:04;;;;;;;18.53;14.07;;;;;;;6.42;97.80;101965.03;5006342;28;20585;-70
2023/04/18 03:41:32;;;;;;;20.13;14.33;;;;;;;6.41;97.80;101964.19;4999224;28;20206;-70
2023/04/18 03:43:58;;;;;;;20.27;14.33;;;;;;;6.41;98.23;101968.59;5002162;28;20238;-70
2023/04/18 03:46:25;;;;;;;20.70;14.37;;;;;;;6.42;98.11;101967.69;4999825;28;20198;-70
2023/04/18 03:48:51;;;;;;;21.73;14.30;;;;;;;6.42;98.04;101975.63;5002593;28;20215;-71
2023/04/18 03:51:18;;;;;;;23.63;15.27;;;;;;;6.41;98.18;101977.41;5005899;28;20215;-70
2023/04/18 03:53:44;;;;;;;23.07;14.30;;;;;;;6.41;98.33;101977.41;5007129;28;20223;-70
2023/04/18 03:56:11;;;;;;;22.87;14.87;;;;;;;6.42;98.90;101973.84;5001178;28;20423;-69
2023/04/18 03:58:39;;;;;;;23.40;15.37;;;;;;;6.43;98.58;101975.59;5004426;28;20675;-70
2023/04/18 04:01:06;;;;;;;23.73;15.47;;;;;;;6.44;98.52;101987.06;5006382;28;20203;-71
2023/04/18 04:03:33;;;;;;;21.57;14.70;;;;;;;6.44;98.61;101984.41;5002886;28;20227;-70
2023/04/18 04:05:59;;;;;;;21.13;14.60;;;;;;;6.43;98.67;101978.25;4997222;28;20286;-69
2023/04/18 04:08:26;;;;;;;23.43;15.17;;;;;;;6.43;99.21;101980.88;5004217;28;20211;-69
2023/04/18 04:10:52;;;;;;;23.50;16.00;;;;;;;6.44;98.57;101979.13;5004207;28;20229;-69
2023/04/18 04:13:19;;;;;;;20.60;15.17;;;;;;;6.45;99.20;101986.16;5002309;28;20227;-71
2023/04/18 04:15:46;;;;;;;20.87;14.43;;;;;;;6.42;99.36;101978.28;5002939;28;20215;-70
2023/04/18 04:18:13;;;;;;;22.40;14.93;;;;;;;6.45;99.30;101983.50;5004150;28;20837;-70
2023/04/18 04:20:39;;;;;;;23.43;14.80;;;;;;;6.43;99.44;101985.31;4994660;28;20210;-70
2023/04/18 04:23:06;;;;;;;17.77;13.63;;;;;;;6.42;98.87;101987.09;5000009;28;20235;-69
2023/04/18 04:25:33;;;;;;;19.87;14.07;;;;;;;6.43;99.02;101987.97;4996633;28;20286;-70
2023/04/18 04:28:01;;;;;;;21.27;15.03;;;;;;;6.43;99.03;101980.88;5005383;28;20234;-70
2023/04/18 04:30:27;;;;;;;23.03;14.63;;;;;;;6.44;99.13;101989.69;5008642;28;20720;-69
2023/04/18 04:32:55;;;;;;;20.77;14.63;;;;;;;6.44;99.38;101995.00;5003503;28;20230;-70
2023/04/18 04:35:22;;;;;;;19.57;13.50;;;;;;;6.43;98.90;102001.19;5008086;28;20721;-70
2023/04/18 04:37:51;;;;;;;21.23;14.57;;;;;;;6.44;99.35;102002.94;5006223;28;20210;-70
2023/04/18 04:40:18;;;;;;;21.93;14.00;;;;;;;6.44;99.19;102003.81;5007807;28;20203;-68
2023/04/18 04:42:44;;;;;;;20.43;13.87;;;;;;;6.44;98.76;102005.56;5005962;28;20313;-68
2023/04/18 04:45:11;;;;;;;20.60;14.27;;;;;;;6.43;98.69;102004.72;5008835;28;20215;-70
2023/04/18 04:47:37;;;;;;;22.93;14.00;;;;;;;6.43;98.67;101994.13;5008744;28;20228;-71
2023/04/18 04:50:13;;;;;;;17.80;13.73;;;;;;;6.45;98.98;102002.88;5006949;28;20234;-71
2023/04/18 04:52:39;;;;;;;22.13;14.20;;;;;;;6.47;99.02;102005.47;5009210;28;20310;-70
2023/04/18 04:55:06;;;;;;;16.97;12.70;;;;;;;6.48;99.03;102004.56;4997379;28;20203;-71
2023/04/18 04:57:33;;;;;;;17.67;13.43;;;;;;;6.48;98.53;102007.22;5010025;28;20234;-70
2023/04/18 04:59:59;;;;;;;21.60;13.80;;;;;;;6.46;98.51;102004.59;5000193;28;20203;-70
2023/04/18 05:02:26;;;;;;;20.87;13.47;;;;;;;6.46;98.31;102012.53;5000377;28;20254;-70
2023/04/18 05:04:52;;;;;;;19.33;13.53;;;;;;;6.46;98.35;102012.53;4992075;28;20211;-69
2023/04/18 05:07:20;;;;;;;19.63;13.87;;;;;;;6.47;98.68;102014.28;5003801;28;20214;-69
2023/04/18 05:09:47;;;;;;;20.20;13.23;;;;;;;6.48;98.76;102017.81;5005861;28;20234;-69
2023/04/18 05:12:13;;;;;;;17.50;13.37;;;;;;;6.49;98.68;102019.53;5004944;28;20292;-67
2023/04/18 05:14:40;;;;;;;17.33;12.80;;;;;;;6.49;98.21;102020.41;5006009;28;20494;-69
2023/04/18 05:17:06;;;;;;;21.40;14.70;;;;;;;6.51;98.38;102020.38;5008076;28;20207;-71
2023/04/18 05:19:32;;;;;;;17.93;13.67;;;;;;;6.51;98.11;102029.19;5008500;28;20727;-70
2023/04/18 05:21:59;;;;;;;18.20;12.80;;;;;;;6.51;98.51;102030.97;5005582;28;20211;-69
2023/04/18 05:24:27;;;;;;;16.83;12.73;;;;;;;6.52;98.15;102033.56;5006648;28;20213;-69
2023/04/18 05:26:53;;;;;;;16.60;12.27;;;;;;;6.55;97.93;102030.00;5009363;28;20218;-70
2023/04/18 05:29:20;;;;;;;17.17;13.63;;;;;;;6.54;98.06;102036.19;5009714;28;20211;-70
2023/04/18 05:31:46;;;;;;;16.97;12.00;;;;;;;6.54;98.25;102038.84;5008276;28;20311;-70
2023/04/18 05:34:13;;;;;;;15.97;12.17;;;;;;;6.54;97.97;102039.72;5004000;28;20474;-69
2023/04/18 05:36:39;;;;;;;16.23;13.13;;;;;;;6.53;97.95;102043.25;5007197;28;20203;-71
2023/04/18 05:39:05;;;;;;;16.73;12.33;;;;;;;6.54;98.13;102049.41;5006132;28;20217;-71
2023/04/18 05:41:33;;;;;;;20.37;13.27;;;;;;;6.53;98.08;102043.25;5006699;28;20203;-70
2023/04/18 05:44:00;;;;;;;18.57;13.80;;;;;;;6.55;97.85;102040.56;5008502;28;20227;-69
2023/04/18 05:46:26;;;;;;;17.33;12.80;;;;;;;6.54;97.75;102037.06;5007871;28;20207;-70
2023/04/18 05:48:53;;;;;;;18.37;12.53;;;;;;;6.55;97.75;102046.75;5008145;28;20206;-71
2023/04/18 05:51:19;;;;;;;19.30;12.73;;;;;;;6.54;98.06;102049.41;5008698;28;20226;-70
2023/04/18 05:53:45;;;;;;;15.00;12.80;;;;;;;6.54;97.93;102052.06;5006568;28;20607;-71
2023/04/18 05:56:12;;;;;;;16.97;12.70;;;;;;;6.55;97.85;102051.16;5008828;28;20676;-70
2023/04/18 05:58:40;;;;;;;16.00;12.93;;;;;;;6.53;97.68;102047.69;5007570;28;20223;-73
2023/04/18 06:01:07;;;;;;;16.73;12.73;;;;;;;6.53;97.68;102048.56;5007856;28;20619;-70
2023/04/18 06:03:34;;;;;;;17.37;13.63;;;;;;;6.51;97.08;102050.38;5004693;28;20246;-70
2023/04/18 06:06:01;;;;;;;19.13;13.90;;;;;;;6.52;97.02;102052.09;5003810;28;20210;-70
2023/04/18 06:08:27;;;;;;;16.97;12.70;;;;;;;6.51;97.33;102053.00;5005823;28;20207;-71
2023/04/18 06:10:53;;;;;;;20.60;13.73;;;;;;;6.54;97.30;102060.00;5006751;28;20234;-71
2023/04/18 06:13:20;;;;;;;17.30;12.80;;;;;;;6.54;97.09;102052.06;5007399;28;20230;-70
2023/04/18 06:15:48;;;;;;;18.50;13.43;;;;;;;6.51;96.91;102058.31;5006468;28;20211;-70
2023/04/18 06:18:14;;;;;;;20.00;13.40;;;;;;;6.52;96.55;102061.81;5007747;28;20210;-70
2023/04/18 06:20:42;;;;;;;18.60;13.63;;;;;;;6.51;96.41;102058.31;5008573;28;20568;-70
2023/04/18 06:23:09;;;;;;;14.80;12.10;;;;;;;6.50;96.81;102061.84;5006175;28;20227;-69
2023/04/18 06:25:35;;;;;;;15.97;13.40;;;;;;;6.51;96.54;102054.78;5008388;28;20227;-72
2023/04/18 06:28:02;;;;;;;16.83;12.70;;;;;;;6.50;95.70;102058.34;5002044;28;20199;-72
2023/04/18 06:30:28;;;;;;;19.00;13.27;;;;;;;6.50;95.55;102063.63;5013607;28;20226;-70
2023/04/18 06:32:56;;;;;;;17.07;13.27;;;;;;;6.51;95.84;102060.94;5007318;28;20779;-72
2023/04/18 06:35:22;;;;;;;16.03;12.70;;;;;;;6.53;95.26;102059.13;5008038;28;20206;-70
2023/04/18 06:37:49;;;;;;;16.17;12.23;;;;;;;6.54;95.57;102060.88;5006717;28;20207;-70
2023/04/18 06:40:16;;;;;;;15.93;12.60;;;;;;;6.57;95.38;102065.22;5007214;28;20199;-72
2023/04/18 06:42:43;;;;;;;15.07;11.83;;;;;;;6.59;95.33;102069.59;5006341;28;20229;-71
2023/04/18 06:45:10;;;;;;;13.27;11.50;;;;;;;6.61;95.24;102072.19;5008169;28;20203;-70
2023/04/18 06:47:37;;;;;;;15.00;12.00;;;;;;;6.62;95.55;102073.94;5006577;28;20199;-71
2023/04/18 06:50:06;;;;;;;17.27;13.53;;;;;;;6.64;95.53;102072.09;5007673;28;20657;-70
2023/04/18 06:52:34;;;;;;;15.53;13.17;;;;;;;6.66;94.90;102074.72;5002272;28;20227;-71
2023/04/18 06:55:00;;;;;;;19.40;13.10;;;;;;;6.69;94.52;102074.66;5002370;28;20199;-71
2023/04/18 06:57:27;;;;;;;18.23;13.00;;;;;;;6.68;94.58;102072.91;5007193;28;20211;-73
2023/04/18 06:59:53;;;;;;;15.63;11.67;;;;;;;6.69;94.49;102077.28;5006713;28;20214;-74
2023/04/18 07:02:20;;;;;;;15.80;12.63;;;;;;;6.71;94.15;102078.13;5005497;28;20226;-71
2023/04/18 07:04:46;;;;;;;15.90;12.10;;;;;;;6.74;94.41;102078.94;5006667;28;20692;-71
2023/04/18 07:07:14;;;;;;;14.23;12.33;;;;;;;6.77;94.45;102078.84;5006907;28;20225;-71
2023/04/18 07:09:40;;;;;;;15.90;11.90;;;;;;;6.80;94.78;102076.13;5005529;28;20306;-70
2023/04/18 07:12:07;;;;;;;16.60;12.90;;;;;;;6.85;94.20;102081.28;5007265;28;20226;-71
2023/04/18 07:14:33;;;;;;;14.97;11.20;;;;;;;6.86;94.28;102073.31;5006759;28;20211;-71
2023/04/18 07:17:00;;;;;;;16.17;12.17;;;;;;;6.91;94.26;102082.03;5006237;28;20676;-71
2023/04/18 07:19:26;;;;;;;23.07;13.57;;;;;;;6.98;93.39;102082.75;5007211;28;20207;-72
2023/04/18 07:21:54;;;;;;;14.33;11.87;;;;;;;7.03;94.14;102086.13;5006822;28;20207;-71
2023/04/18 07:24:23;;;;;;;12.93;10.73;;;;;;;7.10;93.57;102087.72;5006279;28;20577;-73
2023/04/18 07:26:49;;;;;;;14.90;11.50;;;;;;;7.17;93.68;102099.88;5006832;28;20281;-71
2023/04/18 07:29:18;;;;;;;15.13;11.37;;;;;;;7.26;92.87;102099.66;5003969;28;20626;-71
2023/04/18 07:31:44;;;;;;;12.03;9.97;;;;;;;7.32;92.18;102102.16;5006969;28;20472;-68
2023/04/18 07:34:12;;;;;;;14.50;12.33;;;;;;;7.37;92.28;102101.13;5005913;28;20241;-73
2023/04/18 07:36:39;;;;;;;14.97;11.30;;;;;;;7.43;92.02;102101.84;5007556;28;20209;-71
2023/04/18 07:39:06;;;;;;;17.10;12.00;;;;;;;7.49;91.40;102096.38;5006355;28;20691;-72
2023/04/18 07:41:34;;;;;;;14.10;11.77;;;;;;;7.56;90.63;102099.72;5007259;28;20210;-67
2023/04/18 07:44:01;;;;;;;17.50;11.27;;;;;;;7.64;90.30;102101.25;5004460;28;20234;-71
2023/04/18 07:46:28;;;;;;;15.67;11.33;;;;;;;7.73;90.14;102097.47;5006910;28;20210;-69
2023/04/18 07:48:54;;;;;;;14.63;11.03;;;;;;;7.80;89.82;102095.50;5005571;28;20209;-69
2023/04/18 07:51:24;;;;;;;14.43;10.87;;;;;;;7.88;89.96;102102.31;5007057;28;20707;-71
2023/04/18 07:53:50;;;;;;;14.70;11.70;;;;;;;7.92;88.71;102108.41;5006796;28;20660;-69
2023/04/18 07:56:17;;;;;;;14.37;11.53;;;;;;;7.97;88.24;102110.03;5007092;28;20210;-70
2023/04/18 07:58:45;;;;;;;14.30;12.00;;;;;;;8.00;87.64;102106.41;5009368;28;20207;-72
2023/04/18 08:01:12;;;;;;;14.50;11.57;;;;;;;8.02;86.98;102117.84;5010843;28;20202;-69
2023/04/18 08:03:38;;;;;;;13.30;11.67;;;;;;;8.02;86.84;102108.13;5004890;28;20223;-71
2023/04/18 08:06:06;;;;;;;12.30;10.57;;;;;;;8.05;85.31;102115.13;5010772;28;20668;-73
2023/04/18 08:08:32;;;;;;;13.90;11.27;;;;;;;8.06;85.44;102111.53;5009606;28;20637;-71
2023/04/18 08:10:58;;;;;;;13.80;11.00;;;;;;;8.10;85.11;102115.81;5010228;28;20738;-71
2023/04/18 08:13:25;;;;;;;12.70;11.13;;;;;;;8.14;85.80;102116.63;5010208;28;20237;-71
2023/04/18 08:15:54;;;;;;;13.40;11.70;;;;;;;8.19;84.75;102112.91;5011286;28;20211;-70
2023/04/18 08:18:21;;;;;;;14.57;11.03;;;;;;;8.24;84.23;102118.94;5009305;28;20211;-70
2023/04/18 08:20:48;;;;;;;12.70;10.93;;;;;;;8.26;84.05;102111.78;5009830;28;20298;-71
2023/04/18 08:23:15;;;;;;;14.73;11.43;;;;;;;8.30;83.90;102115.22;5008617;28;20227;-71
2023/04/18 08:25:41;;;;;;;12.87;11.47;;;;;;;8.41;85.04;102121.13;5010254;28;20199;-70
2023/04/18 08:28:08;;;;;;;12.30;10.77;;;;;;;8.53;84.68;102114.56;5009215;28;20207;-70
2023/04/18 08:30:34;;;;;;;14.13;11.73;;;;;;;8.63;84.48;102116.00;5010327;28;20703;-71
2023/04/18 08:33:02;;;;;;;11.70;9.90;;;;;;;8.77;83.78;102116.44;5007045;28;20227;-72
2023/04/18 08:35:29;;;;;;;12.67;10.67;;;;;;;8.93;83.80;102114.16;5010327;28;20214;-71
2023/04/18 08:37:55;;;;;;;13.03;10.57;;;;;;;9.07;82.73;102111.88;5008556;28;20200;-70
2023/04/18 08:40:22;;;;;;;13.73;10.57;;;;;;;9.19;81.46;102122.09;5009963;28;20225;-70
2023/04/18 08:42:51;;;;;;;12.17;9.47;;;;;;;9.26;79.66;102120.97;5010075;28;20229;-71
2023/04/18 08:45:19;;;;;;;14.13;11.97;;;;;;;9.28;79.34;102116.47;5009037;28;20203;-71
2023/04/18 08:47:46;;;;;;;11.20;10.00;;;;;;;9.32;78.92;102122.53;5010885;28;20687;-71
2023/04/18 08:50:15;;;;;;;15.73;11.33;;;;;;;9.36;79.13;102129.47;5009735;28;20295;-70
2023/04/18 08:52:46;;;;;;;11.60;9.63;;;;;;;9.39;78.81;102129.38;5009732;28;20227;-70
2023/04/18 08:55:12;;;;;;;12.70;10.77;;;;;;;9.40;78.14;102126.69;5009899;28;20215;-70
2023/04/18 08:57:39;;;;;;;13.30;10.47;;;;;;;9.40;77.73;102118.69;5009519;28;20195;-68
2023/04/18 09:00:10;;;;;;;12.53;10.07;;;;;;;9.45;77.76;102125.66;5009605;28;20206;-70
2023/04/18 09:02:41;;;;;;;14.33;11.20;;;;;;;9.47;77.79;102130.00;5008254;28;20711;-72
2023/04/18 09:05:12;;;;;;;12.00;10.70;;;;;;;9.54;77.19;102133.28;5005864;28;20226;-71
2023/04/18 09:07:40;;;;;;;14.63;10.30;;;;;;;9.54;76.78;102130.63;5009052;28;20624;-72
2023/04/18 09:10:07;;;;;;;12.93;11.20;;;;;;;9.56;77.18;102128.78;5009587;28;20210;-70
2023/04/18 09:12:41;;;;;;;10.87;9.77;;;;;;;9.58;76.98;102130.47;5007223;28;20235;-71
2023/04/18 09:15:13;;;;;;;13.77;11.77;;;;;;;9.66;77.27;102132.88;5002939;28;20236;-70
2023/04/18 09:17:42;;;;;;;12.47;10.83;;;;;;;9.74;77.25;102125.47;5007665;28;20225;-68
2023/04/18 09:20:10;;;;;;;13.53;10.60;;;;;;;9.82;76.37;102125.19;5004320;28;20206;-70
2023/04/18 09:22:46;;;;;;;11.60;10.40;;;;;;;9.91;76.47;102128.38;5005395;28;20231;-71
2023/04/18 09:25:24;;;;;;;13.00;9.87;;;;;;;9.93;74.90;102137.19;5003144;28;20583;-70
2023/04/18 09:27:52;;;;;;;12.37;10.60;;;;;;;9.95;74.24;102137.13;5009063;28;20203;-70
2023/04/18 09:30:36;;;;;;;12.07;10.80;;;;;;;9.97;74.36;102132.63;5008840;28;20238;-69
2023/04/18 09:33:06;;;;;;;11.50;9.87;;;;;;;10.01;74.86;102132.44;5007383;28;20595;-70
2023/04/18 09:35:33;;;;;;;13.60;10.00;;;;;;;10.04;73.93;102126.13;5009107;28;20200;-71
2023/04/18 09:38:00;;;;;;;11.40;8.93;;;;;;;10.11;74.03;102127.63;5008175;28;20215;-70
2023/04/18 09:40:27;;;;;;;12.77;9.60;;;;;;;10.14;73.38;102122.19;5009574;28;20210;-74
2023/04/18 09:42:54;;;;;;;9.87;8.87;;;;;;;10.16;73.33;102123.00;5009015;28;20230;-70
2023/04/18 09:45:21;;;;;;;10.63;8.30;;;;;;;10.25;73.37;102117.34;5008696;28;20221;-70
2023/04/18 09:47:48;;;;;;;9.87;7.93;;;;;;;10.31;72.36;102117.13;5007784;28;20218;-70
2023/04/18 09:50:17;;;;;;;8.70;7.80;;;;;;;10.36;72.10;102115.16;5008971;28;20227;-70
2023/04/18 09:52:45;;;;;;;9.30;7.83;;;;;;;10.39;71.47;102120.34;5007302;28;20704;-71
2023/04/18 09:55:14;;;;;;;11.17;7.73;;;;;;;10.44;71.16;102122.81;5008304;28;20203;-68
2023/04/18 09:57:44;;;;;;;7.83;6.70;;;;;;;10.44;69.83;102120.16;5006896;28;20664;-70
2023/04/18 10:00:16;;;;;;;10.70;8.10;;;;;;;10.46;70.19;102126.31;5006929;28;20579;-70
2023/04/18 10:02:48;;;;;;;10.77;8.17;;;;;;;10.52;70.17;102115.41;5009066;28;20218;-70
2023/04/18 10:05:15;;;;;;;10.27;6.77;;;;;;;10.52;69.78;102123.41;5006635;28;20229;-70
2023/04/18 10:07:44;;;;;;;10.37;8.00;;;;;;;10.49;69.30;102117.31;5007633;28;20208;-70
2023/04/18 10:10:13;;;;;;;8.13;7.23;;;;;;;10.50;69.67;102127.94;5007083;28;20259;-70
2023/04/18 10:12:40;;;;;;;10.27;7.50;;;;;;;10.50;69.34;102119.94;5007463;28;20636;-70
2023/04/18 10:15:08;;;;;;;8.47;7.50;;;;;;;10.48;69.12;102127.13;5006655;28;20199;-70
2023/04/18 10:17:42;;;;;;;8.27;6.20;;;;;;;10.39;69.01;102115.00;5006257;28;20630;-70
2023/04/18 10:20:15;;;;;;;9.27;7.10;;;;;;;10.38;69.18;102123.09;5004127;28;20203;-67
2023/04/18 10:22:41;;;;;;;7.73;6.73;;;;;;;10.33;68.81;102125.06;5006725;28;20260;-69
2023/04/18 10:25:08;;;;;;;8.77;7.43;;;;;;;10.31;69.23;102118.91;5008265;28;20689;-69
2023/04/18 10:27:56;;;;;;;6.77;5.33;;;;;;;10.30;69.41;102126.03;5008491;28;20654;-70
2023/04/18 10:31:02;;;;;;;7.10;6.33;;;;;;;10.30;69.24;102117.19;5002573;28;20693;-71
2023/04/18 10:33:34;;;;;;;7.80;6.20;;;;;;;10.35;70.31;102123.19;5011518;28;20235;-69
2023/04/18 10:36:03;;;;;;;7.67;6.20;;;;;;;10.37;69.19;102126.69;5008299;28;20208;-69
2023/04/18 10:38:31;;;;;;;7.20;5.90;;;;;;;10.34;68.85;102113.47;5008269;28;20207;-69
2023/04/18 10:41:21;;;;;;;8.87;6.63;;;;;;;10.37;69.04;102126.69;5006503;28;20218;-72
2023/04/18 10:44:21;;;;;;;8.17;7.20;;;;;;;10.46;69.16;102125.44;5006521;28;20254;-70
2023/04/18 10:47:20;;;;;;;7.23;6.47;;;;;;;10.46;68.21;102125.44;5008607;28;20308;-69
2023/04/18 10:49:55;;;;;;;9.97;7.37;;;;;;;10.48;68.29;102120.91;5006184;28;20254;-70
2023/04/18 10:52:22;;;;;;;8.03;7.07;;;;;;;10.44;67.88;102129.03;5007486;28;20234;-70
2023/04/18 10:54:53;;;;;;;8.87;6.90;;;;;;;10.48;68.36;102128.91;5008226;28;20211;-71
2023/04/18 10:57:20;;;;;;;7.97;6.07;;;;;;;10.48;68.35;102126.25;5005690;28;20219;-69
2023/04/18 10:59:49;;;;;;;6.90;6.00;;;;;;;10.50;68.28;102129.72;5003145;28;20290;-70
2023/04/18 11:02:24;;;;;;;7.90;6.20;;;;;;;10.49;68.02;102125.31;5005617;28;20241;-70
2023/04/18 11:04:50;;;;;;;7.63;6.43;;;;;;;10.46;67.01;102128.97;5005889;28;20681;-69
2023/04/18 11:07:17;;;;;;;7.80;6.93;;;;;;;10.44;67.52;102128.16;5007264;28;20234;-71
2023/04/18 11:09:51;;;;;;;9.23;8.03;;;;;;;10.39;66.71;102125.66;5010346;28;20235;-70
2023/04/18 11:12:18;;;;;;;10.53;9.30;;;;;;;10.37;67.02;102126.69;5005999;28;20230;-70
2023/04/18 11:14:46;;;;;;;9.30;8.37;;;;;;;10.36;67.25;102131.13;5007175;28;20215;-69
2023/04/18 11:17:18;;;;;;;10.10;8.00;;;;;;;10.33;66.93;102128.59;5005119;28;20724;-70
2023/04/18 11:19:45;;;;;;;9.20;6.53;;;;;;;10.35;67.58;102121.41;5006621;28;20217;-69
2023/04/18 11:22:12;;;;;;;6.73;6.03;;;;;;;10.39;67.65;102136.31;5006485;28;20236;-70
2023/04/18 11:24:39;;;;;;;7.93;6.43;;;;;;;10.35;67.26;102124.06;5005049;28;20226;-70